»·PEaware :: N112PC KDAG-KTOA

N112PC :: KDAG-KTOA

FLIGHT INFORMATION

Flight Status: Arrived
Operator: Privately registered:
United States
More flights under this callsign
Pilot: Gabor H. (24209)
Aircraft: PILATUS PC-12 EAGLE
(PC12)
More flights by this aircraft type
Origin: KDAG Barstow-Daggett
United States
Destination: KTOA Zamperini
United States
More flights between these airports :: More routes between these airports
Route: +DAWNA V21 SLI
File this flight plan on PilotEdge
Remarks:
Altitude:
(Current/Filed)
12,000ft
Speed:
(Current/Filed)
250kts
Departed: 23-Apr-19 07:41 AM
Arrived: 23-Apr-19 08:20 AM
Distance/Time
Traveled:
100nm/0:39
Distance/Time
To Go:
Arrived

Flight Plot

Page will automatically refresh every two minutes.

Flight plan parsing failed; only flown route is shown


Map Options




Map Legend


Flown Route
Filed Route
Departure Airport
Arrival Airport
Navaid (VOR, NDB)
Fix

Horizontal Profiles

Position Reports

Time Latitude Longitude Heading Altitude Ground
Speed
23-Apr-19 07:11 34.857919 -116.790206 90 1930ft 0kts
23-Apr-19 07:12 34.857919 -116.790206 90 1930ft 0kts
23-Apr-19 07:13 34.857919 -116.790206 90 1930ft 0kts
23-Apr-19 07:14 34.857919 -116.790206 90 1930ft 0kts
23-Apr-19 07:15 34.857919 -116.790206 90 1930ft 0kts
23-Apr-19 07:16 34.857919 -116.790206 90 1930ft 0kts
23-Apr-19 07:17 34.857919 -116.790206 90 1930ft 0kts
23-Apr-19 07:18 34.857919 -116.790206 90 1930ft 0kts
23-Apr-19 07:19 34.857919 -116.790206 90 1930ft 0kts
23-Apr-19 07:20 34.857919 -116.790206 90 1930ft 0kts
23-Apr-19 07:21 34.857919 -116.790206 90 1930ft 0kts
23-Apr-19 07:22 34.857919 -116.790206 90 1930ft 0kts
23-Apr-19 07:23 34.857919 -116.790206 90 1930ft 0kts
23-Apr-19 07:24 34.857919 -116.790206 90 1930ft 0kts
23-Apr-19 07:25 34.857919 -116.790206 90 1930ft 0kts
23-Apr-19 07:26 34.857919 -116.790206 90 1930ft 0kts
23-Apr-19 07:27 34.857919 -116.790206 90 1930ft 0kts
23-Apr-19 07:28 34.857919 -116.790206 90 1930ft 0kts
23-Apr-19 07:29 34.857919 -116.790139 90 1930ft 0kts
23-Apr-19 07:30 34.857919 -116.790139 90 1930ft 0kts
23-Apr-19 07:31 34.857919 -116.790138 90 1930ft 0kts
23-Apr-19 07:32 34.857919 -116.790138 90 1930ft 0kts
23-Apr-19 07:33 34.857470 -116.789969 186 1930ft 15kts
23-Apr-19 07:34 34.855166 -116.790922 222 1930ft 9kts
23-Apr-19 07:35 34.852497 -116.787263 89 1930ft 20kts
23-Apr-19 07:36 34.852508 -116.779995 88 1930ft 9kts
23-Apr-19 07:37 34.852555 -116.777082 88 1930ft 0kts
23-Apr-19 07:39 34.852552 -116.776736 102 1930ft 0kts
23-Apr-19 07:40 34.852052 -116.776595 182 1930ft 11kts
23-Apr-19 07:41 34.851536 -116.793808 271 2393ft 124kts
23-Apr-19 07:42 34.824519 -116.816732 157 4008ft 163kts
23-Apr-19 07:43 34.812851 -116.763865 90 6057ft 177kts
23-Apr-19 07:44 34.806675 -116.703484 91 7490ft 185kts
23-Apr-19 07:45 34.800553 -116.643365 74 7518ft 170kts
23-Apr-19 07:46 34.831603 -116.645826 293 7591ft 169kts
23-Apr-19 07:47 34.840094 -116.707505 280 9054ft 210kts
23-Apr-19 07:48 34.829014 -116.782233 243 10618ft 243kts
23-Apr-19 07:49 34.774023 -116.833169 203 11911ft 258kts
23-Apr-19 07:50 34.705141 -116.869410 204 12006ft 276kts
23-Apr-19 07:51 34.634877 -116.908749 204 12035ft 282kts
23-Apr-19 07:52 34.562806 -116.948689 204 12036ft 284kts
23-Apr-19 07:53 34.490861 -116.988656 204 12023ft 284kts
23-Apr-19 07:54 34.418864 -117.028347 204 12008ft 282kts
23-Apr-19 07:55 34.347236 -117.067697 204 12005ft 283kts
23-Apr-19 07:56 34.275568 -117.108046 208 11924ft 286kts
23-Apr-19 07:56 34.223637 -117.160081 228 10667ft 289kts
23-Apr-19 07:58 34.159709 -117.240524 227 8994ft 287kts
23-Apr-19 07:59 34.103247 -117.308565 227 8023ft 274kts
23-Apr-19 07:59 34.058864 -117.362885 227 7998ft 271kts
23-Apr-19 08:00 34.005033 -117.426332 227 7993ft 270kts
23-Apr-19 08:02 33.943020 -117.500618 225 7994ft 269kts
23-Apr-19 08:02 33.908892 -117.562025 251 8012ft 265kts
23-Apr-19 08:03 33.887971 -117.647415 256 7441ft 272kts
23-Apr-19 08:05 33.863841 -117.741415 255 6254ft 271kts
23-Apr-19 08:05 33.845960 -117.812619 254 5132ft 259kts
23-Apr-19 08:06 33.824959 -117.893906 254 4987ft 250kts
23-Apr-19 08:07 33.805596 -117.968604 254 4988ft 252kts
23-Apr-19 08:08 33.784387 -118.046892 242 4877ft 258kts
23-Apr-19 08:09 33.733253 -118.108353 222 4008ft 252kts
23-Apr-19 08:10 33.680357 -118.162737 221 4000ft 249kts
23-Apr-19 08:11 33.627549 -118.199751 169 3880ft 214kts
23-Apr-19 08:12 33.610533 -118.150031 42 3390ft 184kts
23-Apr-19 08:13 33.656897 -118.153724 332 3006ft 173kts
23-Apr-19 08:14 33.698996 -118.180891 324 3002ft 172kts
23-Apr-19 08:15 33.728102 -118.225113 306 2776ft 171kts
23-Apr-19 08:16 33.754492 -118.264950 308 1817ft 143kts
23-Apr-19 08:17 33.777116 -118.299043 309 981ft 119kts
23-Apr-19 08:18 33.793732 -118.324013 308 436ft 78kts
23-Apr-19 08:19 33.803927 -118.339408 308 106ft 22kts
23-Apr-19 08:20 33.805951 -118.344077 287 106ft 13kts
23-Apr-19 08:21 33.806043 -118.347019 225 106ft 4kts
23-Apr-19 08:22 33.805565 -118.347677 134 106ft 0kts
23-Apr-19 08:23 33.805565 -118.347677 134 106ft 0kts

Navigation Log

Ident Type
Flight plan parsing failed, navigation log unavailable